Time;durP1;ratioP1;P1;durP2;ratioP2;P2;SDS_P1;SDS_P2;PMS_P1;PMS_P2;Temp;Humidity;BMP_temperature;BMP_pressure;BME280_temperature;BME280_humidity;BME280_pressure;Samples;Min_cycle;Max_cycle;Signal;HPM_P1;HPM_P2
2022/11/09 00:00:33;;;;;;;19.77;14.35;;;;;;;;;;5052620;28;20060;-73
2022/11/09 00:02:59;;;;;;;21.13;14.88;;;;;;;;;;5052667;28;20021;-74
2022/11/09 00:05:25;;;;;;;22.85;15.18;;;;;;;;;;5052626;28;20055;-74
2022/11/09 00:07:51;;;;;;;19.65;14.43;;;;;;;;;;5052401;28;20075;-74
2022/11/09 00:10:17;;;;;;;22.50;15.35;;;;;;;;;;5052654;28;20025;-74
2022/11/09 00:12:43;;;;;;;20.85;16.42;;;;;;;;;;5052473;28;20372;-73
2022/11/09 00:15:09;;;;;;;21.05;14.38;;;;;;;;;;5052468;28;20047;-74
2022/11/09 00:17:35;;;;;;;19.33;13.07;;;;;;;;;;5043696;28;20022;-73
2022/11/09 00:20:01;;;;;;;18.15;13.30;;;;;;;;;;5050679;28;20108;-74
2022/11/09 00:22:27;;;;;;;19.15;13.48;;;;;;;;;;5056426;28;20057;-74
2022/11/09 00:24:53;;;;;;;18.20;13.32;;;;;;;;;;5057067;28;20080;-74
2022/11/09 00:27:19;;;;;;;16.52;12.88;;;;;;;;;;5056391;28;20025;-74
2022/11/09 00:29:45;;;;;;;20.65;13.70;;;;;;;;;;5056473;28;20021;-74
2022/11/09 00:32:11;;;;;;;17.17;12.80;;;;;;;;;;5039026;28;20034;-74
2022/11/09 00:34:38;;;;;;;17.02;12.30;;;;;;;;;;5044508;28;20450;-73
2022/11/09 00:37:04;;;;;;;15.93;12.00;;;;;;;;;;5056421;28;20379;-74
2022/11/09 00:39:30;;;;;;;14.65;11.15;;;;;;;;;;5056347;28;20021;-74
2022/11/09 00:41:56;;;;;;;13.57;10.90;;;;;;;;;;5056044;28;20044;-73
2022/11/09 00:44:22;;;;;;;15.77;11.23;;;;;;;;;;5056002;28;20052;-73
2022/11/09 00:46:48;;;;;;;14.95;11.40;;;;;;;;;;5056017;28;20025;-74
2022/11/09 00:49:14;;;;;;;14.93;11.05;;;;;;;;;;5056210;28;20021;-73
2022/11/09 00:51:40;;;;;;;15.85;10.45;;;;;;;;;;5055942;28;20057;-73
2022/11/09 00:54:07;;;;;;;16.40;11.65;;;;;;;;;;5056095;28;20375;-73
2022/11/09 00:56:33;;;;;;;14.80;11.68;;;;;;;;;;5055963;28;20108;-74
2022/11/09 00:58:59;;;;;;;16.15;12.20;;;;;;;;;;5055806;28;20018;-74
2022/11/09 01:01:25;;;;;;;18.38;12.70;;;;;;;;;;5055899;28;20024;-73
2022/11/09 01:03:51;;;;;;;17.50;11.95;;;;;;;;;;5055811;28;20024;-73
2022/11/09 01:06:18;;;;;;;14.38;10.70;;;;;;;;;;5055878;28;20487;-73
2022/11/09 01:08:45;;;;;;;13.80;10.50;;;;;;;;;;5055636;28;20055;-73
2022/11/09 01:11:11;;;;;;;16.40;10.82;;;;;;;;;;5055615;28;20487;-72
2022/11/09 01:13:38;;;;;;;12.43;9.48;;;;;;;;;;5055886;28;20032;-73
2022/11/09 01:16:08;;;;;;;14.80;10.00;;;;;;;;;;5055705;28;20021;-74
2022/11/09 01:18:34;;;;;;;16.35;11.35;;;;;;;;;;5038981;28;20033;-73
2022/11/09 01:21:01;;;;;;;13.65;10.05;;;;;;;;;;5055594;28;20017;-74
2022/11/09 01:23:27;;;;;;;12.88;9.68;;;;;;;;;;5055410;28;20033;-73
2022/11/09 01:25:58;;;;;;;14.80;10.45;;;;;;;;;;5055596;28;20108;-73
2022/11/09 01:28:24;;;;;;;14.30;9.88;;;;;;;;;;5055493;28;20063;-74
2022/11/09 01:30:50;;;;;;;12.27;9.60;;;;;;;;;;5052872;28;20021;-73
2022/11/09 01:33:16;;;;;;;12.90;9.48;;;;;;;;;;5055378;28;20021;-73
2022/11/09 01:35:42;;;;;;;13.88;10.10;;;;;;;;;;5055300;28;20021;-74
2022/11/09 01:38:08;;;;;;;14.90;10.65;;;;;;;;;;5055090;28;20028;-73
2022/11/09 01:40:36;;;;;;;12.73;9.70;;;;;;;;;;5055098;28;20517;-73
2022/11/09 01:43:31;;;;;;;11.73;8.98;;;;;;;;;;5055273;28;20036;-73
2022/11/09 01:46:03;;;;;;;12.63;8.73;;;;;;;;;;4993398;28;20047;-73
2022/11/09 01:48:43;;;;;;;13.02;10.13;;;;;;;;;;4993627;28;20050;-73
2022/11/09 01:51:13;;;;;;;14.52;10.65;;;;;;;;;;4993227;28;20443;-73
2022/11/09 01:53:40;;;;;;;17.92;11.32;;;;;;;;;;4993603;28;20030;-73
2022/11/09 01:56:07;;;;;;;13.95;10.38;;;;;;;;;;4993517;28;20405;-73
2022/11/09 01:58:37;;;;;;;13.52;9.85;;;;;;;;;;4993626;28;20033;-73
2022/11/09 02:01:04;;;;;;;14.52;9.65;;;;;;;;;;4993190;28;20088;-73
2022/11/09 02:03:37;;;;;;;13.18;10.05;;;;;;;;;;4993404;28;20481;-73
2022/11/09 02:06:04;;;;;;;14.38;9.50;;;;;;;;;;4993372;28;20105;-73
2022/11/09 02:08:31;;;;;;;13.40;8.93;;;;;;;;;;4993434;28;20534;-74
2022/11/09 02:10:57;;;;;;;16.02;9.88;;;;;;;;;;4993155;28;20071;-74
2022/11/09 02:13:24;;;;;;;13.25;8.85;;;;;;;;;;4976858;28;20507;-74
2022/11/09 02:15:51;;;;;;;12.35;8.23;;;;;;;;;;4992935;28;20405;-73
2022/11/09 02:18:17;;;;;;;13.35;8.93;;;;;;;;;;4993007;28;20030;-74
2022/11/09 02:20:44;;;;;;;13.00;9.38;;;;;;;;;;4992883;28;20507;-74
2022/11/09 02:23:10;;;;;;;12.13;9.02;;;;;;;;;;5045833;28;20483;-74
2022/11/09 02:25:37;;;;;;;12.43;9.13;;;;;;;;;;5054224;28;20464;-73
2022/11/09 02:28:03;;;;;;;12.07;9.00;;;;;;;;;;5054412;28;20053;-74
2022/11/09 02:30:29;;;;;;;12.35;8.63;;;;;;;;;;5054509;28;20028;-74
2022/11/09 02:32:55;;;;;;;12.43;8.90;;;;;;;;;;5054215;28;20509;-74
2022/11/09 02:35:21;;;;;;;11.60;8.48;;;;;;;;;;5053935;28;20509;-74
2022/11/09 02:37:48;;;;;;;12.43;8.57;;;;;;;;;;5054129;28;20483;-73
2022/11/09 02:40:20;;;;;;;16.15;9.25;;;;;;;;;;5054231;28;20025;-73
2022/11/09 02:42:46;;;;;;;13.43;7.82;;;;;;;;;;5054093;28;20051;-74
2022/11/09 02:45:12;;;;;;;13.18;9.13;;;;;;;;;;5053611;28;20053;-73
2022/11/09 02:47:38;;;;;;;13.68;8.52;;;;;;;;;;5054154;28;20371;-73
2022/11/09 02:50:05;;;;;;;12.63;8.90;;;;;;;;;;5053534;28;20090;-73
2022/11/09 02:52:31;;;;;;;12.15;8.65;;;;;;;;;;5053799;28;20075;-73
2022/11/09 02:54:57;;;;;;;10.10;7.47;;;;;;;;;;5053655;28;20384;-74
2022/11/09 02:57:23;;;;;;;11.98;7.70;;;;;;;;;;5053736;28;20029;-73
2022/11/09 02:59:49;;;;;;;11.02;7.75;;;;;;;;;;5053312;28;20025;-74
2022/11/09 03:02:15;;;;;;;10.85;7.35;;;;;;;;;;5053728;28;20597;-74
2022/11/09 03:04:41;;;;;;;11.07;7.97;;;;;;;;;;5053462;28;20024;-74
2022/11/09 03:07:07;;;;;;;13.65;7.70;;;;;;;;;;5053555;28;20100;-73
2022/11/09 03:09:33;;;;;;;10.10;7.28;;;;;;;;;;5053413;28;20021;-73
2022/11/09 03:12:27;;;;;;;11.20;7.40;;;;;;;;;;5053297;28;20115;-73
2022/11/09 03:14:45;;;;;;;10.27;7.13;;;;;;;;;;5053162;28;20037;-73
2022/11/09 03:17:12;;;;;;;9.93;6.60;;;;;;;;;;5053118;28;20521;-73
2022/11/09 03:19:39;;;;;;;11.65;7.15;;;;;;;;;;5053367;28;20024;-73
2022/11/09 03:22:05;;;;;;;10.77;7.05;;;;;;;;;;5053187;28;20445;-73
2022/11/09 03:24:31;;;;;;;9.95;6.88;;;;;;;;;;5053290;28;20032;-73
2022/11/09 03:26:57;;;;;;;9.98;6.53;;;;;;;;;;5053035;28;20033;-73
2022/11/09 03:29:23;;;;;;;11.93;7.18;;;;;;;;;;5053791;28;20020;-74
2022/11/09 03:31:49;;;;;;;9.70;8.10;;;;;;;;;;5053018;28;20029;-74
2022/11/09 03:34:15;;;;;;;11.32;8.32;;;;;;;;;;5052995;28;20055;-74
2022/11/09 03:36:41;;;;;;;11.40;8.18;;;;;;;;;;5052961;28;20025;-73
2022/11/09 03:39:07;;;;;;;12.68;8.68;;;;;;;;;;5053013;28;20021;-74
2022/11/09 03:41:34;;;;;;;10.65;7.95;;;;;;;;;;5052771;28;20483;-74
2022/11/09 03:44:00;;;;;;;11.05;7.57;;;;;;;;;;5052623;28;20044;-73
2022/11/09 03:46:27;;;;;;;11.40;7.55;;;;;;;;;;5053204;28;20056;-73
2022/11/09 03:48:53;;;;;;;13.05;8.63;;;;;;;;;;5052705;28;20031;-74
2022/11/09 03:51:19;;;;;;;21.63;10.60;;;;;;;;;;5052460;28;20036;-74
2022/11/09 03:53:45;;;;;;;17.27;9.88;;;;;;;;;;5052422;28;20017;-75
2022/11/09 03:56:11;;;;;;;12.00;8.60;;;;;;;;;;5052594;28;20071;-73
2022/11/09 03:58:37;;;;;;;13.27;9.88;;;;;;;;;;5052653;28;20024;-74
2022/11/09 04:01:03;;;;;;;12.98;9.27;;;;;;;;;;5052506;28;20036;-73
2022/11/09 04:03:29;;;;;;;13.48;9.02;;;;;;;;;;5052531;28;20044;-74
2022/11/09 04:05:57;;;;;;;13.38;9.57;;;;;;;;;;5052619;28;20040;-73
2022/11/09 04:08:24;;;;;;;15.55;9.65;;;;;;;;;;5052661;28;20060;-73
2022/11/09 04:10:50;;;;;;;15.07;9.82;;;;;;;;;;5052472;28;20375;-74
2022/11/09 04:13:16;;;;;;;12.55;9.32;;;;;;;;;;5052823;28;20463;-73
2022/11/09 04:15:42;;;;;;;16.23;9.63;;;;;;;;;;5052290;28;20021;-73
2022/11/09 04:18:11;;;;;;;14.38;8.23;;;;;;;;;;5052572;28;20037;-73
2022/11/09 04:20:37;;;;;;;14.02;8.93;;;;;;;;;;5052181;28;20017;-74
2022/11/09 04:23:04;;;;;;;12.38;8.18;;;;;;;;;;5052484;28;20049;-74
2022/11/09 04:25:34;;;;;;;12.23;7.95;;;;;;;;;;5052283;28;20111;-74
2022/11/09 04:28:01;;;;;;;11.27;8.73;;;;;;;;;;5052568;28;20586;-73
2022/11/09 04:30:28;;;;;;;9.65;6.60;;;;;;;;;;5052116;28;20344;-73
2022/11/09 04:32:54;;;;;;;13.45;7.20;;;;;;;;;;5052141;28;20033;-73
2022/11/09 04:35:20;;;;;;;12.00;8.00;;;;;;;;;;5052364;28;20490;-73
2022/11/09 04:37:54;;;;;;;12.95;8.38;;;;;;;;;;5052227;28;20382;-73
2022/11/09 04:40:21;;;;;;;15.88;9.80;;;;;;;;;;5052676;28;20128;-73
2022/11/09 04:42:47;;;;;;;14.00;9.23;;;;;;;;;;5052324;28;20475;-73
2022/11/09 04:45:13;;;;;;;27.20;17.58;;;;;;;;;;5052030;28;20135;-73
2022/11/09 04:47:39;;;;;;;20.02;10.43;;;;;;;;;;5051887;28;20060;-73
2022/11/09 04:50:06;;;;;;;15.35;9.13;;;;;;;;;;5052204;28;20523;-73
2022/11/09 04:52:32;;;;;;;16.52;9.55;;;;;;;;;;5052077;28;20036;-73
2022/11/09 04:54:58;;;;;;;14.25;8.90;;;;;;;;;;5052138;28;20483;-73
2022/11/09 04:57:24;;;;;;;14.23;9.77;;;;;;;;;;5052085;28;20394;-74
2022/11/09 04:59:50;;;;;;;16.50;10.32;;;;;;;;;;5052574;28;20087;-73
2022/11/09 05:02:16;;;;;;;12.70;9.02;;;;;;;;;;5051904;28;20060;-73
2022/11/09 05:04:42;;;;;;;12.02;8.00;;;;;;;;;;5054024;28;20025;-73
2022/11/09 05:07:08;;;;;;;12.48;8.85;;;;;;;;;;5055825;28;20048;-73
2022/11/09 05:09:34;;;;;;;21.35;13.88;;;;;;;;;;5055985;28;20070;-74
2022/11/09 05:12:00;;;;;;;23.77;14.88;;;;;;;;;;5055537;28;20033;-73
2022/11/09 05:14:26;;;;;;;17.65;12.15;;;;;;;;;;5055813;28;20487;-73
2022/11/09 05:16:52;;;;;;;17.60;11.52;;;;;;;;;;5055515;28;20483;-73
2022/11/09 05:19:18;;;;;;;16.90;10.63;;;;;;;;;;5055702;28;20498;-73
2022/11/09 05:21:45;;;;;;;12.43;8.98;;;;;;;;;;5055476;28;20556;-74
2022/11/09 05:24:11;;;;;;;13.52;8.82;;;;;;;;;;5055904;28;20096;-74
2022/11/09 05:26:38;;;;;;;12.90;9.48;;;;;;;;;;5055351;28;20025;-73
2022/11/09 05:29:06;;;;;;;14.68;9.40;;;;;;;;;;5055788;28;20024;-73
2022/11/09 05:31:32;;;;;;;16.73;11.50;;;;;;;;;;5055171;28;20025;-73
2022/11/09 05:33:58;;;;;;;20.27;12.55;;;;;;;;;;5055306;28;20029;-74
2022/11/09 05:36:24;;;;;;;24.25;13.65;;;;;;;;;;5055167;28;20029;-74
2022/11/09 05:38:50;;;;;;;18.73;12.63;;;;;;;;;;5055203;28;20025;-73
2022/11/09 05:41:16;;;;;;;19.27;12.25;;;;;;;;;;5055189;28;20033;-74
2022/11/09 05:43:46;;;;;;;19.17;11.23;;;;;;;;;;5055063;28;20025;-73
2022/11/09 05:46:13;;;;;;;17.48;11.15;;;;;;;;;;5034341;28;20032;-74
2022/11/09 05:48:40;;;;;;;16.92;11.77;;;;;;;;;;5046655;28;20025;-73
2022/11/09 05:51:06;;;;;;;18.52;12.30;;;;;;;;;;5055077;28;20155;-74
2022/11/09 05:53:33;;;;;;;20.45;12.00;;;;;;;;;;5054920;28;20017;-74
2022/11/09 05:56:17;;;;;;;24.67;15.93;;;;;;;;;;5055168;28;20032;-74
2022/11/09 05:58:43;;;;;;;19.02;13.50;;;;;;;;;;5055107;28;20494;-73
2022/11/09 06:01:10;;;;;;;20.70;12.75;;;;;;;;;;5054778;28;20033;-73
2022/11/09 06:03:36;;;;;;;20.35;13.30;;;;;;;;;;5054797;28;20021;-74
2022/11/09 06:06:03;;;;;;;21.90;14.52;;;;;;;;;;5054899;28;20027;-73
2022/11/09 06:08:29;;;;;;;21.92;14.90;;;;;;;;;;5054849;28;20036;-74
2022/11/09 06:11:03;;;;;;;20.45;15.18;;;;;;;;;;5054779;28;20036;-73
2022/11/09 06:13:29;;;;;;;20.80;13.48;;;;;;;;;;5054454;28;20025;-73
2022/11/09 06:15:55;;;;;;;23.55;14.23;;;;;;;;;;5043715;28;20108;-73
2022/11/09 06:18:25;;;;;;;28.95;17.23;;;;;;;;;;5048627;28;20577;-73
2022/11/09 06:20:52;;;;;;;22.63;16.42;;;;;;;;;;5054488;28;20550;-74
2022/11/09 06:23:18;;;;;;;27.55;18.45;;;;;;;;;;5054577;28;20032;-74
2022/11/09 06:25:44;;;;;;;26.77;15.88;;;;;;;;;;5054330;28;20025;-74
2022/11/09 06:28:10;;;;;;;22.92;17.30;;;;;;;;;;5054313;28;20021;-73
2022/11/09 06:30:36;;;;;;;28.98;18.58;;;;;;;;;;5054371;28;20109;-74
2022/11/09 06:33:03;;;;;;;24.80;16.63;;;;;;;;;;5054166;28;20021;-73
2022/11/09 06:35:29;;;;;;;32.10;19.92;;;;;;;;;;5054208;28;20451;-73
2022/11/09 06:37:56;;;;;;;22.65;14.63;;;;;;;;;;5054122;28;20025;-74
2022/11/09 06:40:22;;;;;;;35.30;25.67;;;;;;;;;;5054143;28;20028;-74
2022/11/09 06:42:48;;;;;;;61.22;50.38;;;;;;;;;;5054164;28;20106;-74
2022/11/09 06:45:14;;;;;;;23.63;17.08;;;;;;;;;;5053847;28;20444;-74
2022/11/09 06:47:40;;;;;;;27.08;20.13;;;;;;;;;;5034096;28;20411;-74
2022/11/09 06:50:08;;;;;;;60.10;32.88;;;;;;;;;;5043140;28;20108;-74
2022/11/09 06:52:34;;;;;;;51.38;31.92;;;;;;;;;;5053924;28;20028;-74
2022/11/09 06:55:00;;;;;;;28.00;16.13;;;;;;;;;;5053759;28;20031;-74
2022/11/09 06:57:29;;;;;;;33.05;17.48;;;;;;;;;;5053843;28;20029;-74
2022/11/09 06:59:55;;;;;;;34.60;18.20;;;;;;;;;;5053688;28;20029;-74
2022/11/09 07:02:21;;;;;;;30.23;19.65;;;;;;;;;;5053387;28;20029;-74
2022/11/09 07:04:47;;;;;;;32.85;21.60;;;;;;;;;;5053514;28;20439;-74
2022/11/09 07:07:13;;;;;;;41.90;23.90;;;;;;;;;;5053759;28;20082;-74
2022/11/09 07:09:39;;;;;;;57.63;30.60;;;;;;;;;;5053584;28;20029;-74
2022/11/09 07:12:06;;;;;;;59.85;33.78;;;;;;;;;;5053533;28;20028;-74
2022/11/09 07:14:32;;;;;;;78.68;47.88;;;;;;;;;;5053442;28;20025;-74
2022/11/09 07:16:58;;;;;;;69.20;48.92;;;;;;;;;;5053046;28;20139;-74
2022/11/09 07:19:24;;;;;;;61.13;44.15;;;;;;;;;;5053534;28;20017;-74
2022/11/09 07:21:50;;;;;;;65.65;47.88;;;;;;;;;;5053378;28;20120;-74
2022/11/09 07:24:16;;;;;;;86.53;57.35;;;;;;;;;;5053445;28;20021;-73
2022/11/09 07:26:42;;;;;;;64.20;44.97;;;;;;;;;;5052978;28;20383;-75
2022/11/09 07:29:08;;;;;;;31.98;18.10;;;;;;;;;;5052298;28;20016;-74
2022/11/09 07:31:34;;;;;;;27.10;17.15;;;;;;;;;;5052931;28;20318;-73
2022/11/09 07:34:03;;;;;;;21.80;15.98;;;;;;;;;;5052840;28;20399;-73
2022/11/09 07:36:30;;;;;;;24.98;17.60;;;;;;;;;;5053372;28;20352;-74
2022/11/09 07:38:56;;;;;;;39.15;27.52;;;;;;;;;;5052929;28;20021;-74
2022/11/09 07:41:22;;;;;;;35.60;22.85;;;;;;;;;;5052898;28;20060;-75
2022/11/09 07:43:48;;;;;;;41.30;27.60;;;;;;;;;;5053226;28;20017;-74
2022/11/09 07:46:14;;;;;;;55.83;38.10;;;;;;;;;;5051787;28;20025;-74
2022/11/09 07:48:40;;;;;;;39.63;30.20;;;;;;;;;;5053103;28;20060;-75
2022/11/09 07:51:06;;;;;;;29.80;21.50;;;;;;;;;;5052712;28;20032;-74
2022/11/09 07:53:32;;;;;;;33.13;20.80;;;;;;;;;;5052796;28;20021;-75
2022/11/09 07:55:59;;;;;;;30.10;19.20;;;;;;;;;;5053046;28;20021;-74
2022/11/09 07:58:25;;;;;;;32.65;21.10;;;;;;;;;;5052742;28;20498;-75
2022/11/09 08:00:51;;;;;;;29.58;18.52;;;;;;;;;;5052690;28;20027;-75
2022/11/09 08:03:18;;;;;;;30.42;18.77;;;;;;;;;;5052319;28;20120;-75
2022/11/09 08:05:44;;;;;;;41.55;24.08;;;;;;;;;;5052852;28;20028;-74
2022/11/09 08:08:11;;;;;;;30.20;22.30;;;;;;;;;;5052646;28;20032;-75
2022/11/09 08:10:38;;;;;;;61.83;39.03;;;;;;;;;;5052525;28;20017;-75
2022/11/09 08:13:09;;;;;;;41.20;29.33;;;;;;;;;;5052570;28;20033;-75
2022/11/09 08:15:37;;;;;;;49.17;31.75;;;;;;;;;;5052923;28;20072;-75
2022/11/09 08:18:04;;;;;;;44.05;28.50;;;;;;;;;;5052406;28;20143;-75
2022/11/09 08:20:30;;;;;;;25.58;17.92;;;;;;;;;;5052473;28;20017;-75
2022/11/09 08:22:56;;;;;;;30.70;22.08;;;;;;;;;;5052368;28;20491;-75
2022/11/09 08:25:23;;;;;;;29.27;19.42;;;;;;;;;;5052540;28;20098;-75
2022/11/09 08:27:49;;;;;;;29.83;21.52;;;;;;;;;;5052048;28;20494;-75
2022/11/09 08:30:17;;;;;;;28.27;19.77;;;;;;;;;;5052384;28;20032;-75
2022/11/09 08:32:43;;;;;;;17.33;12.10;;;;;;;;;;5052274;28;20410;-74
2022/11/09 08:35:10;;;;;;;21.65;16.38;;;;;;;;;;5052301;28;20443;-75
2022/11/09 08:37:36;;;;;;;19.60;13.05;;;;;;;;;;5052579;28;20017;-74
2022/11/09 08:40:03;;;;;;;16.95;13.07;;;;;;;;;;5055078;28;20017;-75
2022/11/09 08:42:29;;;;;;;17.23;12.70;;;;;;;;;;5056299;28;20121;-75
2022/11/09 08:44:55;;;;;;;17.42;12.38;;;;;;;;;;5056106;28;20094;-75
2022/11/09 08:47:21;;;;;;;19.02;14.40;;;;;;;;;;5055924;28;20031;-75
2022/11/09 08:49:47;;;;;;;23.67;16.88;;;;;;;;;;5053293;28;20063;-74
2022/11/09 08:52:13;;;;;;;32.53;19.58;;;;;;;;;;5045061;28;20025;-75
2022/11/09 08:54:39;;;;;;;21.33;16.27;;;;;;;;;;5056122;28;20103;-75
2022/11/09 08:57:05;;;;;;;22.48;14.80;;;;;;;;;;5056014;28;20108;-74
2022/11/09 08:59:31;;;;;;;19.85;15.00;;;;;;;;;;5056000;28;20025;-75
2022/11/09 09:01:58;;;;;;;31.85;21.13;;;;;;;;;;5034176;28;20095;-75
2022/11/09 09:04:24;;;;;;;30.38;21.52;;;;;;;;;;5047517;28;20028;-75
2022/11/09 09:06:50;;;;;;;35.88;23.27;;;;;;;;;;5055840;28;20384;-75
2022/11/09 09:09:16;;;;;;;31.98;21.27;;;;;;;;;;5055746;28;20017;-75
2022/11/09 09:11:42;;;;;;;49.65;28.35;;;;;;;;;;5055829;28;20032;-75
2022/11/09 09:14:08;;;;;;;38.63;25.27;;;;;;;;;;5055804;28;20029;-74
2022/11/09 09:16:34;;;;;;;44.42;31.83;;;;;;;;;;5056252;28;20429;-75
2022/11/09 09:19:00;;;;;;;46.88;29.77;;;;;;;;;;5055409;28;20029;-75
2022/11/09 09:21:26;;;;;;;41.78;29.80;;;;;;;;;;5055592;28;20028;-74
2022/11/09 09:23:52;;;;;;;48.28;31.90;;;;;;;;;;5055520;28;20041;-75
2022/11/09 09:26:18;;;;;;;43.60;29.42;;;;;;;;;;5055622;28;20497;-75
2022/11/09 09:28:44;;;;;;;36.75;26.27;;;;;;;;;;5055165;28;20479;-76
2022/11/09 09:31:10;;;;;;;38.13;24.60;;;;;;;;;;5055410;28;20434;-75
2022/11/09 09:33:37;;;;;;;33.90;25.35;;;;;;;;;;5055142;28;20104;-76
2022/11/09 09:36:03;;;;;;;27.58;22.05;;;;;;;;;;5054869;28;20028;-75
2022/11/09 09:38:29;;;;;;;40.13;20.80;;;;;;;;;;5055297;28;20052;-76
2022/11/09 09:40:55;;;;;;;30.75;19.38;;;;;;;;;;5055019;28;20017;-75
2022/11/09 09:43:37;;;;;;;29.90;19.85;;;;;;;;;;5055425;28;20028;-75
2022/11/09 09:46:05;;;;;;;25.83;18.23;;;;;;;;;;5035135;28;20528;-76
2022/11/09 09:48:37;;;;;;;22.98;16.55;;;;;;;;;;5035041;28;20034;-75
2022/11/09 09:51:32;;;;;;;31.88;18.70;;;;;;;;;;5030119;28;20017;-76
2022/11/09 09:54:06;;;;;;;24.35;16.58;;;;;;;;;;4954907;29;20043;-76
2022/11/09 09:56:39;;;;;;;19.42;15.68;;;;;;;;;;4954834;29;20110;-76
2022/11/09 09:59:05;;;;;;;25.15;18.50;;;;;;;;;;4945687;29;20040;-75
2022/11/09 10:01:38;;;;;;;25.35;17.50;;;;;;;;;;4950248;29;20042;-76
2022/11/09 10:04:15;;;;;;;21.48;15.77;;;;;;;;;;4946820;29;20159;-76
2022/11/09 10:06:59;;;;;;;18.00;13.38;;;;;;;;;;4920707;29;20502;-75
2022/11/09 10:09:25;;;;;;;26.83;13.93;;;;;;;;;;4954502;29;20035;-76
2022/11/09 10:11:54;;;;;;;30.00;15.73;;;;;;;;;;4954243;29;20035;-76
2022/11/09 10:14:26;;;;;;;26.85;13.75;;;;;;;;;;4954480;29;20039;-76
2022/11/09 10:16:55;;;;;;;26.70;14.05;;;;;;;;;;4954211;29;20039;-75
2022/11/09 10:19:21;;;;;;;26.13;15.32;;;;;;;;;;4938311;29;20031;-78
2022/11/09 10:21:57;;;;;;;25.60;14.90;;;;;;;;;;4954124;29;20047;-76
2022/11/09 10:24:23;;;;;;;20.25;14.32;;;;;;;;;;4954402;29;20070;-77
2022/11/09 10:26:51;;;;;;;17.27;11.93;;;;;;;;;;4954233;29;20059;-77
2022/11/09 10:29:20;;;;;;;16.20;11.95;;;;;;;;;;4959200;28;20563;-75
2022/11/09 10:31:47;;;;;;;14.60;12.57;;;;;;;;;;5034541;28;20036;-77
2022/11/09 10:34:25;;;;;;;12.98;10.98;;;;;;;;;;5034298;28;20026;-78
2022/11/09 10:37:10;;;;;;;14.55;11.15;;;;;;;;;;5034187;28;20572;-77
2022/11/09 10:39:47;;;;;;;14.30;11.30;;;;;;;;;;5016242;28;20037;-77
2022/11/09 10:42:13;;;;;;;17.65;11.10;;;;;;;;;;5033839;28;20044;-78
2022/11/09 10:44:39;;;;;;;26.50;13.57;;;;;;;;;;5042499;28;20068;-77
2022/11/09 10:47:15;;;;;;;18.52;11.95;;;;;;;;;;5053769;28;20143;-77
2022/11/09 10:49:42;;;;;;;16.58;11.93;;;;;;;;;;5039823;28;20051;-78
2022/11/09 10:52:28;;;;;;;17.35;12.90;;;;;;;;;;5053634;28;20029;-77
2022/11/09 10:55:12;;;;;;;18.17;10.35;;;;;;;;;;5053756;28;20107;-77
2022/11/09 10:57:49;;;;;;;22.55;11.48;;;;;;;;;;5040842;28;20113;-75
2022/11/09 11:00:19;;;;;;;22.75;11.38;;;;;;;;;;5052829;28;20029;-73
2022/11/09 11:02:46;;;;;;;23.37;9.93;;;;;;;;;;5053277;28;20064;-75
2022/11/09 11:05:18;;;;;;;15.05;9.88;;;;;;;;;;5053800;28;20013;-73
2022/11/09 11:07:45;;;;;;;19.58;12.93;;;;;;;;;;5053517;28;20155;-76
2022/11/09 11:10:17;;;;;;;18.48;10.75;;;;;;;;;;5053813;28;20575;-74
2022/11/09 11:12:43;;;;;;;13.90;9.70;;;;;;;;;;5053719;28;20191;-75
2022/11/09 11:15:23;;;;;;;19.58;11.80;;;;;;;;;;5053142;28;20449;-75
2022/11/09 11:17:50;;;;;;;17.08;11.82;;;;;;;;;;5053424;28;20053;-75
2022/11/09 11:20:36;;;;;;;15.93;9.43;;;;;;;;;;5053144;28;20021;-73
2022/11/09 11:23:09;;;;;;;23.05;11.07;;;;;;;;;;5053141;28;20064;-74
2022/11/09 11:25:39;;;;;;;15.30;10.70;;;;;;;;;;5053213;28;20017;-74
2022/11/09 11:28:20;;;;;;;15.35;9.80;;;;;;;;;;5053293;28;20025;-74
2022/11/09 11:30:46;;;;;;;12.32;9.43;;;;;;;;;;5052791;28;20017;-73
2022/11/09 11:33:18;;;;;;;15.40;9.40;;;;;;;;;;5053016;28;20110;-74
2022/11/09 11:35:50;;;;;;;15.77;11.52;;;;;;;;;;5052748;28;20029;-74
2022/11/09 11:38:16;;;;;;;8.57;7.68;;;;;;;;;;5053051;28;20112;-74
2022/11/09 11:40:45;;;;;;;12.77;8.55;;;;;;;;;;5052783;28;20053;-73
2022/11/09 11:43:29;;;;;;;13.57;8.27;;;;;;;;;;5053121;28;20033;-74
2022/11/09 11:45:55;;;;;;;7.20;6.47;;;;;;;;;;5052601;28;20103;-74
2022/11/09 11:48:40;;;;;;;9.77;7.38;;;;;;;;;;5052424;28;20067;-74
2022/11/09 11:51:32;;;;;;;9.75;7.28;;;;;;;;;;5052736;28;20025;-73
2022/11/09 11:54:07;;;;;;;8.10;6.70;;;;;;;;;;5048061;28;20082;-74
2022/11/09 11:56:36;;;;;;;10.18;7.30;;;;;;;;;;5052342;28;20017;-74
2022/11/09 11:59:18;;;;;;;15.70;12.05;;;;;;;;;;5052619;28;20025;-73
2022/11/09 12:01:53;;;;;;;13.02;9.38;;;;;;;;;;5052267;28;20021;-73
2022/11/09 12:04:34;;;;;;;12.27;8.00;;;;;;;;;;5052422;28;20024;-76
2022/11/09 12:07:05;;;;;;;14.68;9.60;;;;;;;;;;5052537;28;20017;-76
2022/11/09 12:09:31;;;;;;;;;;;;;;;;;;5052845;28;20021;-76
2022/11/09 12:11:57;;;;;;;12.82;7.70;;;;;;;;;;5052255;28;19931;-76
2022/11/09 12:14:25;;;;;;;9.13;8.20;;;;;;;;;;5051948;28;20424;-75
2022/11/09 12:17:14;;;;;;;10.23;7.00;;;;;;;;;;5052051;28;20025;-75
2022/11/09 12:19:58;;;;;;;10.75;7.88;;;;;;;;;;5052297;28;20021;-75
2022/11/09 12:22:43;;;;;;;9.63;6.68;;;;;;;;;;5052066;28;20032;-76
2022/11/09 12:25:16;;;;;;;17.52;8.27;;;;;;;;;;5051014;28;20066;-76
2022/11/09 12:27:45;;;;;;;11.82;7.25;;;;;;;;;;5039017;28;20467;-75
2022/11/09 12:30:16;;;;;;;9.57;7.10;;;;;;;;;;5052257;28;20147;-76
2022/11/09 12:32:51;;;;;;;9.48;7.47;;;;;;;;;;5052151;28;20079;-75
2022/11/09 12:35:23;;;;;;;11.30;7.88;;;;;;;;;;5052278;28;20067;-75
2022/11/09 12:37:49;;;;;;;8.20;6.72;;;;;;;;;;5038477;28;20182;-76
2022/11/09 12:40:25;;;;;;;10.75;8.48;;;;;;;;;;5052165;28;20060;-75
2022/11/09 12:42:58;;;;;;;9.95;8.75;;;;;;;;;;5052001;28;20048;-76
2022/11/09 12:45:31;;;;;;;12.48;8.35;;;;;;;;;;5051866;28;20061;-76
2022/11/09 12:47:59;;;;;;;17.33;10.93;;;;;;;;;;5052050;28;20021;-75
2022/11/09 12:50:26;;;;;;;9.80;7.80;;;;;;;;;;5051677;28;20025;-75
2022/11/09 12:52:52;;;;;;;12.77;7.63;;;;;;;;;;5052006;28;20471;-75
2022/11/09 12:55:22;;;;;;;9.75;8.73;;;;;;;;;;5051991;28;20114;-75
2022/11/09 12:57:48;;;;;;;9.43;7.32;;;;;;;;;;5052142;28;20072;-76
2022/11/09 13:00:33;;;;;;;11.68;6.95;;;;;;;;;;5051724;28;20030;-75
2022/11/09 13:03:00;;;;;;;8.50;6.70;;;;;;;;;;5052012;28;20078;-76
2022/11/09 13:05:30;;;;;;;15.32;8.88;;;;;;;;;;5051661;28;20016;-76
2022/11/09 13:07:59;;;;;;;9.98;8.63;;;;;;;;;;5052066;28;20029;-76
2022/11/09 13:10:29;;;;;;;7.97;6.93;;;;;;;;;;5051725;28;20028;-76
2022/11/09 13:13:07;;;;;;;8.27;7.43;;;;;;;;;;5052485;28;20056;-75
2022/11/09 13:15:34;;;;;;;11.23;8.15;;;;;;;;;;5051724;28;20025;-76
2022/11/09 13:18:02;;;;;;;11.45;8.82;;;;;;;;;;5052077;28;20035;-76
2022/11/09 13:20:34;;;;;;;13.00;9.05;;;;;;;;;;5051641;28;20021;-75
2022/11/09 13:23:02;;;;;;;9.77;7.45;;;;;;;;;;5050290;28;20115;-75
2022/11/09 13:25:49;;;;;;;10.63;7.97;;;;;;;;;;5051421;28;20502;-75
2022/11/09 13:28:27;;;;;;;13.48;9.57;;;;;;;;;;5055322;28;20023;-76
2022/11/09 13:30:56;;;;;;;16.23;11.70;;;;;;;;;;5055385;28;20052;-76
2022/11/09 13:33:27;;;;;;;23.42;13.10;;;;;;;;;;5055153;28;20025;-76
2022/11/09 13:35:54;;;;;;;13.18;11.02;;;;;;;;;;5055370;28;20017;-75
2022/11/09 13:38:21;;;;;;;11.88;8.68;;;;;;;;;;5055376;28;20020;-75
2022/11/09 13:40:50;;;;;;;11.98;7.25;;;;;;;;;;5055317;28;20078;-75
2022/11/09 13:43:21;;;;;;;13.30;9.20;;;;;;;;;;5053539;28;20032;-75
2022/11/09 13:45:52;;;;;;;24.88;12.32;;;;;;;;;;5055116;28;20056;-75
2022/11/09 13:48:33;;;;;;;13.07;9.52;;;;;;;;;;5054919;28;20013;-75
2022/11/09 13:51:11;;;;;;;15.45;9.25;;;;;;;;;;5054982;28;20025;-75
2022/11/09 13:53:37;;;;;;;28.92;16.23;;;;;;;;;;5054979;28;20024;-75
2022/11/09 13:56:22;;;;;;;23.00;18.23;;;;;;;;;;5055011;28;20021;-75
2022/11/09 13:58:49;;;;;;;16.90;12.05;;;;;;;;;;5040577;28;20152;-75
2022/11/09 14:01:31;;;;;;;14.10;8.63;;;;;;;;;;5054608;28;20475;-75
2022/11/09 14:03:57;;;;;;;16.00;11.55;;;;;;;;;;5042443;28;20036;-75
2022/11/09 14:06:23;;;;;;;18.45;12.50;;;;;;;;;;5054686;28;20075;-75
2022/11/09 14:08:50;;;;;;;13.40;10.25;;;;;;;;;;5054523;28;20152;-73
2022/11/09 14:11:19;;;;;;;25.63;16.70;;;;;;;;;;5054339;28;20021;-75
2022/11/09 14:13:48;;;;;;;30.52;20.63;;;;;;;;;;5055106;28;20125;-75
2022/11/09 14:16:32;;;;;;;22.02;14.85;;;;;;;;;;5054416;28;20060;-75
2022/11/09 14:19:19;;;;;;;26.17;18.63;;;;;;;;;;5054307;28;20040;-75
2022/11/09 14:21:46;;;;;;;18.55;13.07;;;;;;;;;;5054151;28;20056;-75
2022/11/09 14:24:19;;;;;;;37.08;18.83;;;;;;;;;;5054351;28;20021;-73
2022/11/09 14:27:03;;;;;;;37.40;24.55;;;;;;;;;;5054249;28;20040;-73
2022/11/09 14:29:32;;;;;;;35.78;22.83;;;;;;;;;;5042190;28;20035;-75
2022/11/09 14:32:00;;;;;;;47.90;29.80;;;;;;;;;;5038498;28;20025;-74